sensor_id;sensor_type;location;lat;lon;timestamp;P1;durP1;ratioP1;P2;durP2;ratioP2
58689;SDS011;44470;53.206;-6.106;2023-05-19T00:01:10;4.82;;;2.80;;
58689;SDS011;44470;53.206;-6.106;2023-05-19T00:07:29;3.60;;;2.50;;
58689;SDS011;44470;53.206;-6.106;2023-05-19T00:09:56;3.88;;;2.45;;
58689;SDS011;44470;53.206;-6.106;2023-05-19T00:12:23;5.18;;;2.58;;
58689;SDS011;44470;53.206;-6.106;2023-05-19T00:14:49;2.88;;;2.53;;
58689;SDS011;44470;53.206;-6.106;2023-05-19T00:17:16;2.90;;;2.58;;
58689;SDS011;44470;53.206;-6.106;2023-05-19T00:19:45;4.38;;;2.20;;
58689;SDS011;44470;53.206;-6.106;2023-05-19T00:22:12;4.70;;;2.42;;
58689;SDS011;44470;53.206;-6.106;2023-05-19T00:24:38;3.50;;;2.53;;
58689;SDS011;44470;53.206;-6.106;2023-05-19T00:27:04;3.63;;;2.30;;
58689;SDS011;44470;53.206;-6.106;2023-05-19T00:29:31;3.03;;;2.42;;
58689;SDS011;44470;53.206;-6.106;2023-05-19T00:31:56;2.50;;;2.30;;
58689;SDS011;44470;53.206;-6.106;2023-05-19T00:34:22;2.90;;;2.40;;
58689;SDS011;44470;53.206;-6.106;2023-05-19T00:36:51;4.43;;;2.38;;
58689;SDS011;44470;53.206;-6.106;2023-05-19T00:39:20;4.65;;;2.47;;
58689;SDS011;44470;53.206;-6.106;2023-05-19T00:41:46;2.50;;;2.30;;
58689;SDS011;44470;53.206;-6.106;2023-05-19T00:44:12;2.95;;;2.33;;
58689;SDS011;44470;53.206;-6.106;2023-05-19T00:46:38;2.80;;;2.35;;
58689;SDS011;44470;53.206;-6.106;2023-05-19T00:49:06;2.50;;;2.30;;
58689;SDS011;44470;53.206;-6.106;2023-05-19T00:51:34;2.78;;;1.83;;
58689;SDS011;44470;53.206;-6.106;2023-05-19T00:54:05;3.10;;;2.38;;
58689;SDS011;44470;53.206;-6.106;2023-05-19T00:56:31;3.58;;;2.53;;
58689;SDS011;44470;53.206;-6.106;2023-05-19T00:58:59;3.13;;;2.25;;
58689;SDS011;44470;53.206;-6.106;2023-05-19T01:01:26;2.45;;;2.25;;
58689;SDS011;44470;53.206;-6.106;2023-05-19T01:03:51;2.67;;;2.47;;
58689;SDS011;44470;53.206;-6.106;2023-05-19T01:06:17;4.50;;;2.30;;
58689;SDS011;44470;53.206;-6.106;2023-05-19T01:08:43;2.30;;;2.10;;
58689;SDS011;44470;53.206;-6.106;2023-05-19T01:11:11;5.00;;;2.20;;
58689;SDS011;44470;53.206;-6.106;2023-05-19T01:13:36;2.10;;;2.00;;
58689;SDS011;44470;53.206;-6.106;2023-05-19T01:16:17;3.38;;;2.25;;
58689;SDS011;44470;53.206;-6.106;2023-05-19T01:18:51;2.20;;;2.10;;
58689;SDS011;44470;53.206;-6.106;2023-05-19T01:30:25;2.95;;;2.17;;
58689;SDS011;44470;53.206;-6.106;2023-05-19T01:32:53;4.00;;;2.58;;
58689;SDS011;44470;53.206;-6.106;2023-05-19T01:35:23;1.90;;;1.80;;
58689;SDS011;44470;53.206;-6.106;2023-05-19T01:37:51;2.50;;;2.30;;
58689;SDS011;44470;53.206;-6.106;2023-05-19T01:40:20;5.70;;;2.53;;
58689;SDS011;44470;53.206;-6.106;2023-05-19T01:42:51;4.70;;;2.92;;
58689;SDS011;44470;53.206;-6.106;2023-05-19T01:45:19;2.33;;;1.90;;
58689;SDS011;44470;53.206;-6.106;2023-05-19T01:47:50;3.40;;;2.55;;
58689;SDS011;44470;53.206;-6.106;2023-05-19T01:50:19;2.60;;;2.40;;
58689;SDS011;44470;53.206;-6.106;2023-05-19T01:52:46;2.63;;;2.42;;
58689;SDS011;44470;53.206;-6.106;2023-05-19T01:55:13;2.30;;;2.10;;
58689;SDS011;44470;53.206;-6.106;2023-05-19T02:08:59;3.03;;;2.22;;
58689;SDS011;44470;53.206;-6.106;2023-05-19T02:11:53;2.55;;;2.30;;
58689;SDS011;44470;53.206;-6.106;2023-05-19T02:17:04;3.97;;;2.40;;
58689;SDS011;44470;53.206;-6.106;2023-05-19T02:19:34;2.60;;;2.40;;
58689;SDS011;44470;53.206;-6.106;2023-05-19T02:22:03;4.80;;;2.20;;
58689;SDS011;44470;53.206;-6.106;2023-05-19T02:24:29;3.75;;;2.30;;
58689;SDS011;44470;53.206;-6.106;2023-05-19T02:26:57;4.75;;;2.47;;
58689;SDS011;44470;53.206;-6.106;2023-05-19T02:29:23;3.08;;;2.47;;
58689;SDS011;44470;53.206;-6.106;2023-05-19T02:31:49;2.38;;;2.17;;
58689;SDS011;44470;53.206;-6.106;2023-05-19T02:34:15;4.82;;;2.05;;
58689;SDS011;44470;53.206;-6.106;2023-05-19T02:36:41;3.42;;;2.10;;
58689;SDS011;44470;53.206;-6.106;2023-05-19T02:39:07;4.63;;;2.15;;
58689;SDS011;44470;53.206;-6.106;2023-05-19T02:41:36;5.72;;;2.75;;
58689;SDS011;44470;53.206;-6.106;2023-05-19T02:44:05;3.10;;;2.40;;
58689;SDS011;44470;53.206;-6.106;2023-05-19T02:46:32;4.05;;;2.70;;
58689;SDS011;44470;53.206;-6.106;2023-05-19T02:48:58;2.72;;;2.22;;
58689;SDS011;44470;53.206;-6.106;2023-05-19T02:51:23;3.97;;;2.22;;
58689;SDS011;44470;53.206;-6.106;2023-05-19T02:53:49;5.90;;;2.53;;
58689;SDS011;44470;53.206;-6.106;2023-05-19T02:56:15;3.55;;;2.40;;
58689;SDS011;44470;53.206;-6.106;2023-05-19T02:58:41;3.70;;;2.40;;
58689;SDS011;44470;53.206;-6.106;2023-05-19T03:01:08;4.55;;;2.45;;
58689;SDS011;44470;53.206;-6.106;2023-05-19T03:03:34;4.40;;;2.33;;
58689;SDS011;44470;53.206;-6.106;2023-05-19T03:06:00;4.72;;;2.40;;
58689;SDS011;44470;53.206;-6.106;2023-05-19T03:08:26;4.28;;;2.50;;
58689;SDS011;44470;53.206;-6.106;2023-05-19T03:10:52;7.32;;;2.72;;
58689;SDS011;44470;53.206;-6.106;2023-05-19T03:13:18;4.40;;;2.50;;
58689;SDS011;44470;53.206;-6.106;2023-05-19T03:15:43;3.58;;;2.40;;
58689;SDS011;44470;53.206;-6.106;2023-05-19T03:18:09;3.97;;;2.60;;
58689;SDS011;44470;53.206;-6.106;2023-05-19T03:20:46;3.53;;;2.58;;
58689;SDS011;44470;53.206;-6.106;2023-05-19T03:23:11;5.85;;;2.90;;
58689;SDS011;44470;53.206;-6.106;2023-05-19T03:25:37;4.15;;;2.67;;
58689;SDS011;44470;53.206;-6.106;2023-05-19T03:28:03;5.70;;;2.42;;
58689;SDS011;44470;53.206;-6.106;2023-05-19T03:30:28;11.25;;;3.40;;
58689;SDS011;44470;53.206;-6.106;2023-05-19T03:33:06;16.63;;;3.88;;
58689;SDS011;44470;53.206;-6.106;2023-05-19T03:35:32;12.10;;;3.75;;
58689;SDS011;44470;53.206;-6.106;2023-05-19T03:37:59;5.85;;;2.80;;
58689;SDS011;44470;53.206;-6.106;2023-05-19T03:40:25;5.10;;;2.70;;
58689;SDS011;44470;53.206;-6.106;2023-05-19T03:42:56;4.65;;;2.40;;
58689;SDS011;44470;53.206;-6.106;2023-05-19T03:45:22;7.05;;;3.10;;
58689;SDS011;44470;53.206;-6.106;2023-05-19T03:47:50;4.10;;;2.63;;
58689;SDS011;44470;53.206;-6.106;2023-05-19T03:50:51;7.63;;;3.10;;
58689;SDS011;44470;53.206;-6.106;2023-05-19T03:53:24;5.10;;;2.88;;
58689;SDS011;44470;53.206;-6.106;2023-05-19T03:55:52;6.05;;;3.00;;
58689;SDS011;44470;53.206;-6.106;2023-05-19T03:58:21;5.82;;;3.03;;
58689;SDS011;44470;53.206;-6.106;2023-05-19T04:00:52;5.20;;;3.33;;
58689;SDS011;44470;53.206;-6.106;2023-05-19T04:03:18;5.05;;;2.85;;
58689;SDS011;44470;53.206;-6.106;2023-05-19T04:05:43;6.25;;;2.80;;
58689;SDS011;44470;53.206;-6.106;2023-05-19T04:08:09;5.68;;;2.60;;
58689;SDS011;44470;53.206;-6.106;2023-05-19T04:10:36;6.28;;;2.95;;
58689;SDS011;44470;53.206;-6.106;2023-05-19T04:13:02;6.70;;;2.70;;
58689;SDS011;44470;53.206;-6.106;2023-05-19T04:15:27;5.72;;;2.85;;
58689;SDS011;44470;53.206;-6.106;2023-05-19T04:17:54;5.43;;;2.88;;
58689;SDS011;44470;53.206;-6.106;2023-05-19T04:20:20;5.45;;;2.90;;
58689;SDS011;44470;53.206;-6.106;2023-05-19T04:22:45;5.70;;;2.63;;
58689;SDS011;44470;53.206;-6.106;2023-05-19T04:25:11;4.32;;;2.90;;
58689;SDS011;44470;53.206;-6.106;2023-05-19T04:27:38;7.68;;;2.80;;
58689;SDS011;44470;53.206;-6.106;2023-05-19T04:30:04;5.07;;;2.90;;
58689;SDS011;44470;53.206;-6.106;2023-05-19T04:32:31;5.43;;;3.10;;
58689;SDS011;44470;53.206;-6.106;2023-05-19T04:34:57;4.55;;;2.90;;
58689;SDS011;44470;53.206;-6.106;2023-05-19T04:37:24;4.72;;;2.85;;
58689;SDS011;44470;53.206;-6.106;2023-05-19T04:39:50;4.70;;;2.60;;
58689;SDS011;44470;53.206;-6.106;2023-05-19T04:42:17;6.65;;;3.10;;
58689;SDS011;44470;53.206;-6.106;2023-05-19T04:44:47;6.13;;;2.50;;
58689;SDS011;44470;53.206;-6.106;2023-05-19T04:47:13;4.72;;;3.00;;
58689;SDS011;44470;53.206;-6.106;2023-05-19T04:49:39;7.18;;;3.05;;
58689;SDS011;44470;53.206;-6.106;2023-05-19T04:52:05;5.88;;;3.10;;
58689;SDS011;44470;53.206;-6.106;2023-05-19T04:54:33;7.85;;;3.08;;
58689;SDS011;44470;53.206;-6.106;2023-05-19T04:57:02;6.35;;;3.08;;
58689;SDS011;44470;53.206;-6.106;2023-05-19T04:59:30;5.75;;;2.95;;
58689;SDS011;44470;53.206;-6.106;2023-05-19T05:01:56;7.13;;;3.00;;
58689;SDS011;44470;53.206;-6.106;2023-05-19T05:04:23;7.20;;;3.03;;
58689;SDS011;44470;53.206;-6.106;2023-05-19T05:06:50;5.97;;;2.65;;
58689;SDS011;44470;53.206;-6.106;2023-05-19T05:09:17;5.75;;;2.80;;
58689;SDS011;44470;53.206;-6.106;2023-05-19T05:11:44;6.43;;;3.10;;
58689;SDS011;44470;53.206;-6.106;2023-05-19T05:14:10;7.85;;;2.78;;
58689;SDS011;44470;53.206;-6.106;2023-05-19T05:16:36;9.05;;;3.05;;
58689;SDS011;44470;53.206;-6.106;2023-05-19T05:19:03;7.75;;;3.13;;
58689;SDS011;44470;53.206;-6.106;2023-05-19T05:21:29;6.97;;;3.15;;
58689;SDS011;44470;53.206;-6.106;2023-05-19T05:23:57;5.88;;;2.83;;
58689;SDS011;44470;53.206;-6.106;2023-05-19T05:26:26;6.30;;;3.20;;
58689;SDS011;44470;53.206;-6.106;2023-05-19T05:28:54;6.50;;;3.42;;
58689;SDS011;44470;53.206;-6.106;2023-05-19T05:31:20;4.25;;;2.67;;
58689;SDS011;44470;53.206;-6.106;2023-05-19T05:33:46;6.72;;;3.00;;
58689;SDS011;44470;53.206;-6.106;2023-05-19T05:36:13;6.97;;;3.10;;
58689;SDS011;44470;53.206;-6.106;2023-05-19T05:38:43;7.05;;;2.80;;
58689;SDS011;44470;53.206;-6.106;2023-05-19T05:41:08;6.13;;;2.97;;
58689;SDS011;44470;53.206;-6.106;2023-05-19T05:43:35;5.80;;;2.92;;
58689;SDS011;44470;53.206;-6.106;2023-05-19T05:46:02;6.13;;;2.58;;
58689;SDS011;44470;53.206;-6.106;2023-05-19T05:48:28;8.07;;;2.80;;
58689;SDS011;44470;53.206;-6.106;2023-05-19T05:50:55;5.07;;;2.67;;
58689;SDS011;44470;53.206;-6.106;2023-05-19T05:55:55;4.80;;;2.70;;
58689;SDS011;44470;53.206;-6.106;2023-05-19T05:58:26;7.97;;;3.05;;
58689;SDS011;44470;53.206;-6.106;2023-05-19T06:00:53;8.63;;;3.40;;
58689;SDS011;44470;53.206;-6.106;2023-05-19T06:03:22;10.40;;;3.17;;
58689;SDS011;44470;53.206;-6.106;2023-05-19T06:05:49;6.43;;;3.17;;
58689;SDS011;44470;53.206;-6.106;2023-05-19T06:08:14;6.70;;;3.30;;
58689;SDS011;44470;53.206;-6.106;2023-05-19T06:10:41;5.22;;;2.65;;
58689;SDS011;44470;53.206;-6.106;2023-05-19T06:13:09;5.85;;;2.83;;
58689;SDS011;44470;53.206;-6.106;2023-05-19T06:15:37;8.02;;;3.10;;
58689;SDS011;44470;53.206;-6.106;2023-05-19T06:18:13;6.75;;;2.90;;
58689;SDS011;44470;53.206;-6.106;2023-05-19T06:20:39;8.80;;;3.20;;
58689;SDS011;44470;53.206;-6.106;2023-05-19T06:23:05;7.35;;;3.38;;
58689;SDS011;44470;53.206;-6.106;2023-05-19T06:25:30;7.28;;;3.10;;
58689;SDS011;44470;53.206;-6.106;2023-05-19T06:27:56;5.78;;;2.83;;
58689;SDS011;44470;53.206;-6.106;2023-05-19T06:30:22;7.30;;;3.03;;
58689;SDS011;44470;53.206;-6.106;2023-05-19T06:32:57;9.85;;;2.70;;
58689;SDS011;44470;53.206;-6.106;2023-05-19T06:35:24;5.20;;;3.05;;
58689;SDS011;44470;53.206;-6.106;2023-05-19T06:37:49;7.93;;;3.35;;
58689;SDS011;44470;53.206;-6.106;2023-05-19T06:40:18;5.07;;;2.80;;
58689;SDS011;44470;53.206;-6.106;2023-05-19T06:42:44;8.85;;;3.08;;
58689;SDS011;44470;53.206;-6.106;2023-05-19T06:45:15;8.38;;;3.38;;
58689;SDS011;44470;53.206;-6.106;2023-05-19T06:47:40;4.63;;;2.90;;
58689;SDS011;44470;53.206;-6.106;2023-05-19T06:50:10;6.75;;;2.90;;
58689;SDS011;44470;53.206;-6.106;2023-05-19T06:52:38;7.88;;;3.00;;
58689;SDS011;44470;53.206;-6.106;2023-05-19T06:55:04;8.23;;;3.08;;
58689;SDS011;44470;53.206;-6.106;2023-05-19T06:57:31;6.82;;;3.17;;
58689;SDS011;44470;53.206;-6.106;2023-05-19T06:59:57;4.50;;;2.88;;
58689;SDS011;44470;53.206;-6.106;2023-05-19T07:02:22;7.57;;;3.00;;
58689;SDS011;44470;53.206;-6.106;2023-05-19T07:04:48;8.25;;;2.90;;
58689;SDS011;44470;53.206;-6.106;2023-05-19T07:07:19;7.45;;;2.80;;
58689;SDS011;44470;53.206;-6.106;2023-05-19T07:09:45;9.20;;;3.10;;
58689;SDS011;44470;53.206;-6.106;2023-05-19T07:12:11;6.32;;;3.10;;
58689;SDS011;44470;53.206;-6.106;2023-05-19T07:14:37;8.00;;;3.13;;
58689;SDS011;44470;53.206;-6.106;2023-05-19T07:17:04;5.70;;;2.67;;
58689;SDS011;44470;53.206;-6.106;2023-05-19T07:19:31;5.68;;;2.67;;
58689;SDS011;44470;53.206;-6.106;2023-05-19T07:21:57;5.90;;;3.08;;
58689;SDS011;44470;53.206;-6.106;2023-05-19T07:24:23;6.47;;;2.72;;
58689;SDS011;44470;53.206;-6.106;2023-05-19T07:26:49;5.45;;;2.90;;
58689;SDS011;44470;53.206;-6.106;2023-05-19T07:29:17;4.65;;;2.70;;
58689;SDS011;44470;53.206;-6.106;2023-05-19T07:31:43;7.20;;;2.90;;
58689;SDS011;44470;53.206;-6.106;2023-05-19T07:34:09;5.18;;;3.10;;
58689;SDS011;44470;53.206;-6.106;2023-05-19T07:36:34;7.05;;;3.15;;
58689;SDS011;44470;53.206;-6.106;2023-05-19T07:39:00;9.13;;;3.17;;
58689;SDS011;44470;53.206;-6.106;2023-05-19T07:41:25;8.65;;;3.28;;
58689;SDS011;44470;53.206;-6.106;2023-05-19T07:43:52;7.00;;;2.92;;
58689;SDS011;44470;53.206;-6.106;2023-05-19T07:46:18;5.93;;;2.75;;
58689;SDS011;44470;53.206;-6.106;2023-05-19T07:48:43;6.38;;;3.22;;
58689;SDS011;44470;53.206;-6.106;2023-05-19T07:51:09;7.25;;;3.03;;
58689;SDS011;44470;53.206;-6.106;2023-05-19T07:53:36;6.20;;;2.78;;
58689;SDS011;44470;53.206;-6.106;2023-05-19T07:56:02;5.60;;;3.10;;
58689;SDS011;44470;53.206;-6.106;2023-05-19T07:58:28;5.88;;;2.70;;
58689;SDS011;44470;53.206;-6.106;2023-05-19T08:00:57;5.32;;;3.20;;
58689;SDS011;44470;53.206;-6.106;2023-05-19T08:03:23;7.83;;;3.00;;
58689;SDS011;44470;53.206;-6.106;2023-05-19T08:05:49;5.88;;;2.90;;
58689;SDS011;44470;53.206;-6.106;2023-05-19T08:08:15;7.20;;;3.00;;
58689;SDS011;44470;53.206;-6.106;2023-05-19T08:10:41;9.65;;;3.22;;
58689;SDS011;44470;53.206;-6.106;2023-05-19T08:13:07;6.47;;;3.10;;
58689;SDS011;44470;53.206;-6.106;2023-05-19T08:15:32;4.50;;;2.75;;
58689;SDS011;44470;53.206;-6.106;2023-05-19T08:17:58;7.22;;;2.90;;
58689;SDS011;44470;53.206;-6.106;2023-05-19T08:20:23;7.15;;;3.05;;
58689;SDS011;44470;53.206;-6.106;2023-05-19T08:22:49;6.78;;;2.97;;
58689;SDS011;44470;53.206;-6.106;2023-05-19T08:25:14;7.50;;;2.95;;
58689;SDS011;44470;53.206;-6.106;2023-05-19T08:27:40;6.25;;;2.80;;
58689;SDS011;44470;53.206;-6.106;2023-05-19T08:30:06;4.68;;;2.53;;
58689;SDS011;44470;53.206;-6.106;2023-05-19T08:32:32;5.65;;;2.90;;
58689;SDS011;44470;53.206;-6.106;2023-05-19T08:34:57;9.57;;;3.30;;
58689;SDS011;44470;53.206;-6.106;2023-05-19T08:37:23;7.40;;;3.00;;
58689;SDS011;44470;53.206;-6.106;2023-05-19T08:39:49;4.90;;;2.88;;
58689;SDS011;44470;53.206;-6.106;2023-05-19T08:42:15;7.53;;;2.97;;
58689;SDS011;44470;53.206;-6.106;2023-05-19T08:44:40;5.55;;;2.80;;
58689;SDS011;44470;53.206;-6.106;2023-05-19T08:47:08;5.10;;;2.55;;
58689;SDS011;44470;53.206;-6.106;2023-05-19T08:52:14;5.15;;;2.80;;
58689;SDS011;44470;53.206;-6.106;2023-05-19T08:57:52;5.82;;;3.17;;
58689;SDS011;44470;53.206;-6.106;2023-05-19T09:00:18;7.45;;;3.08;;
58689;SDS011;44470;53.206;-6.106;2023-05-19T09:02:44;6.28;;;2.78;;
58689;SDS011;44470;53.206;-6.106;2023-05-19T09:05:14;5.85;;;2.65;;
58689;SDS011;44470;53.206;-6.106;2023-05-19T09:07:41;5.93;;;3.10;;
58689;SDS011;44470;53.206;-6.106;2023-05-19T09:10:07;4.90;;;2.67;;
58689;SDS011;44470;53.206;-6.106;2023-05-19T09:12:44;6.25;;;2.88;;
58689;SDS011;44470;53.206;-6.106;2023-05-19T09:15:17;6.20;;;2.90;;
58689;SDS011;44470;53.206;-6.106;2023-05-19T09:17:46;7.03;;;2.90;;
58689;SDS011;44470;53.206;-6.106;2023-05-19T09:20:12;5.60;;;2.80;;
58689;SDS011;44470;53.206;-6.106;2023-05-19T09:22:44;6.75;;;3.45;;
58689;SDS011;44470;53.206;-6.106;2023-05-19T09:27:47;7.15;;;2.95;;
58689;SDS011;44470;53.206;-6.106;2023-05-19T09:30:14;5.22;;;2.78;;
58689;SDS011;44470;53.206;-6.106;2023-05-19T09:32:41;6.95;;;2.80;;
58689;SDS011;44470;53.206;-6.106;2023-05-19T09:35:07;6.07;;;2.80;;
58689;SDS011;44470;53.206;-6.106;2023-05-19T09:37:32;6.50;;;3.17;;
58689;SDS011;44470;53.206;-6.106;2023-05-19T09:39:58;7.32;;;2.83;;
58689;SDS011;44470;53.206;-6.106;2023-05-19T09:42:24;5.72;;;2.83;;
58689;SDS011;44470;53.206;-6.106;2023-05-19T09:44:58;5.50;;;2.70;;
58689;SDS011;44470;53.206;-6.106;2023-05-19T09:47:27;6.18;;;3.30;;
58689;SDS011;44470;53.206;-6.106;2023-05-19T09:49:57;3.97;;;2.67;;
58689;SDS011;44470;53.206;-6.106;2023-05-19T09:52:23;6.43;;;2.65;;
58689;SDS011;44470;53.206;-6.106;2023-05-19T09:54:50;7.68;;;2.90;;
58689;SDS011;44470;53.206;-6.106;2023-05-19T09:57:16;5.35;;;3.03;;
58689;SDS011;44470;53.206;-6.106;2023-05-19T09:59:41;5.05;;;2.65;;
58689;SDS011;44470;53.206;-6.106;2023-05-19T10:02:09;6.22;;;3.03;;
58689;SDS011;44470;53.206;-6.106;2023-05-19T10:04:40;7.63;;;2.97;;
58689;SDS011;44470;53.206;-6.106;2023-05-19T10:07:06;4.90;;;3.00;;
58689;SDS011;44470;53.206;-6.106;2023-05-19T10:09:34;5.97;;;2.97;;
58689;SDS011;44470;53.206;-6.106;2023-05-19T10:12:01;6.47;;;2.90;;
58689;SDS011;44470;53.206;-6.106;2023-05-19T10:14:28;7.50;;;2.97;;
58689;SDS011;44470;53.206;-6.106;2023-05-19T10:16:55;6.18;;;2.80;;
58689;SDS011;44470;53.206;-6.106;2023-05-19T10:19:24;9.20;;;2.95;;
58689;SDS011;44470;53.206;-6.106;2023-05-19T10:21:56;6.50;;;3.22;;
58689;SDS011;44470;53.206;-6.106;2023-05-19T10:24:22;6.22;;;2.78;;
58689;SDS011;44470;53.206;-6.106;2023-05-19T10:26:48;7.45;;;3.10;;
58689;SDS011;44470;53.206;-6.106;2023-05-19T10:29:29;6.25;;;2.95;;
58689;SDS011;44470;53.206;-6.106;2023-05-19T10:32:00;5.75;;;3.08;;
58689;SDS011;44470;53.206;-6.106;2023-05-19T10:39:53;7.00;;;2.90;;
58689;SDS011;44470;53.206;-6.106;2023-05-19T10:45:25;5.70;;;3.03;;
58689;SDS011;44470;53.206;-6.106;2023-05-19T10:47:54;5.40;;;2.78;;
58689;SDS011;44470;53.206;-6.106;2023-05-19T10:50:20;6.30;;;2.60;;
58689;SDS011;44470;53.206;-6.106;2023-05-19T10:52:51;7.95;;;3.13;;
58689;SDS011;44470;53.206;-6.106;2023-05-19T10:58:10;4.82;;;2.60;;
58689;SDS011;44470;53.206;-6.106;2023-05-19T11:00:35;4.10;;;2.75;;
58689;SDS011;44470;53.206;-6.106;2023-05-19T11:03:16;7.10;;;3.17;;
58689;SDS011;44470;53.206;-6.106;2023-05-19T11:05:48;6.05;;;2.80;;
58689;SDS011;44470;53.206;-6.106;2023-05-19T11:08:30;4.95;;;2.72;;
58689;SDS011;44470;53.206;-6.106;2023-05-19T11:11:11;4.60;;;2.80;;
58689;SDS011;44470;53.206;-6.106;2023-05-19T11:13:53;6.85;;;2.83;;
58689;SDS011;44470;53.206;-6.106;2023-05-19T11:16:30;5.57;;;2.97;;
58689;SDS011;44470;53.206;-6.106;2023-05-19T11:18:59;7.30;;;2.97;;
58689;SDS011;44470;53.206;-6.106;2023-05-19T11:24:31;5.13;;;2.53;;
58689;SDS011;44470;53.206;-6.106;2023-05-19T11:29:46;6.20;;;2.95;;
58689;SDS011;44470;53.206;-6.106;2023-05-19T11:32:12;6.10;;;3.00;;
58689;SDS011;44470;53.206;-6.106;2023-05-19T11:34:43;5.85;;;3.00;;
58689;SDS011;44470;53.206;-6.106;2023-05-19T11:39:38;5.55;;;2.75;;
58689;SDS011;44470;53.206;-6.106;2023-05-19T11:42:04;4.88;;;2.70;;
58689;SDS011;44470;53.206;-6.106;2023-05-19T11:44:30;5.55;;;3.05;;
58689;SDS011;44470;53.206;-6.106;2023-05-19T11:46:57;6.50;;;3.17;;
58689;SDS011;44470;53.206;-6.106;2023-05-19T11:49:24;6.72;;;2.85;;
58689;SDS011;44470;53.206;-6.106;2023-05-19T11:51:51;4.93;;;2.65;;
58689;SDS011;44470;53.206;-6.106;2023-05-19T11:54:18;4.07;;;2.83;;
58689;SDS011;44470;53.206;-6.106;2023-05-19T11:56:44;6.25;;;3.17;;
58689;SDS011;44470;53.206;-6.106;2023-05-19T11:59:10;6.75;;;2.70;;
58689;SDS011;44470;53.206;-6.106;2023-05-19T12:01:36;6.18;;;3.13;;
58689;SDS011;44470;53.206;-6.106;2023-05-19T12:04:02;7.78;;;2.83;;
58689;SDS011;44470;53.206;-6.106;2023-05-19T12:06:32;8.00;;;3.08;;
58689;SDS011;44470;53.206;-6.106;2023-05-19T12:08:58;8.23;;;2.95;;
58689;SDS011;44470;53.206;-6.106;2023-05-19T12:11:24;6.50;;;3.17;;
58689;SDS011;44470;53.206;-6.106;2023-05-19T12:13:58;6.50;;;2.80;;
58689;SDS011;44470;53.206;-6.106;2023-05-19T12:16:31;8.05;;;2.95;;
58689;SDS011;44470;53.206;-6.106;2023-05-19T12:18:58;5.78;;;2.88;;
58689;SDS011;44470;53.206;-6.106;2023-05-19T12:21:23;6.00;;;2.67;;
58689;SDS011;44470;53.206;-6.106;2023-05-19T12:26:35;6.57;;;3.03;;
58689;SDS011;44470;53.206;-6.106;2023-05-19T12:29:03;5.30;;;2.65;;
58689;SDS011;44470;53.206;-6.106;2023-05-19T12:31:31;9.77;;;3.70;;
58689;SDS011;44470;53.206;-6.106;2023-05-19T12:33:59;8.70;;;3.20;;
58689;SDS011;44470;53.206;-6.106;2023-05-19T12:36:25;6.43;;;2.90;;
58689;SDS011;44470;53.206;-6.106;2023-05-19T12:38:55;8.30;;;2.90;;
58689;SDS011;44470;53.206;-6.106;2023-05-19T12:41:23;10.32;;;2.92;;
58689;SDS011;44470;53.206;-6.106;2023-05-19T12:47:38;4.82;;;2.90;;
58689;SDS011;44470;53.206;-6.106;2023-05-19T12:50:08;6.10;;;2.75;;
58689;SDS011;44470;53.206;-6.106;2023-05-19T12:52:40;5.63;;;2.75;;
58689;SDS011;44470;53.206;-6.106;2023-05-19T12:55:08;7.85;;;2.97;;
58689;SDS011;44470;53.206;-6.106;2023-05-19T12:57:39;6.40;;;3.13;;
58689;SDS011;44470;53.206;-6.106;2023-05-19T13:05:28;17.65;;;5.75;;
58689;SDS011;44470;53.206;-6.106;2023-05-19T13:07:59;20.02;;;6.25;;
58689;SDS011;44470;53.206;-6.106;2023-05-19T13:10:27;26.85;;;8.60;;
58689;SDS011;44470;53.206;-6.106;2023-05-19T13:12:54;22.77;;;7.57;;
58689;SDS011;44470;53.206;-6.106;2023-05-19T13:15:21;25.63;;;8.52;;
58689;SDS011;44470;53.206;-6.106;2023-05-19T13:17:51;27.80;;;8.65;;
58689;SDS011;44470;53.206;-6.106;2023-05-19T13:20:21;26.88;;;8.88;;
58689;SDS011;44470;53.206;-6.106;2023-05-19T13:22:49;30.60;;;9.02;;
58689;SDS011;44470;53.206;-6.106;2023-05-19T13:25:15;30.20;;;9.18;;
58689;SDS011;44470;53.206;-6.106;2023-05-19T13:27:41;28.67;;;9.20;;
58689;SDS011;44470;53.206;-6.106;2023-05-19T13:30:13;25.15;;;8.90;;
58689;SDS011;44470;53.206;-6.106;2023-05-19T13:32:46;22.25;;;8.20;;
58689;SDS011;44470;53.206;-6.106;2023-05-19T13:35:15;32.53;;;9.20;;
58689;SDS011;44470;53.206;-6.106;2023-05-19T13:37:41;26.67;;;8.97;;
58689;SDS011;44470;53.206;-6.106;2023-05-19T13:40:07;23.30;;;8.50;;
58689;SDS011;44470;53.206;-6.106;2023-05-19T13:42:34;22.63;;;8.60;;
58689;SDS011;44470;53.206;-6.106;2023-05-19T13:45:01;25.77;;;8.88;;
58689;SDS011;44470;53.206;-6.106;2023-05-19T13:47:27;24.08;;;8.73;;
58689;SDS011;44470;53.206;-6.106;2023-05-19T13:49:53;24.77;;;9.05;;
58689;SDS011;44470;53.206;-6.106;2023-05-19T13:52:23;24.15;;;7.93;;
58689;SDS011;44470;53.206;-6.106;2023-05-19T13:54:51;20.52;;;7.70;;
58689;SDS011;44470;53.206;-6.106;2023-05-19T13:57:19;25.73;;;8.38;;
58689;SDS011;44470;53.206;-6.106;2023-05-19T13:59:46;25.63;;;9.07;;
58689;SDS011;44470;53.206;-6.106;2023-05-19T14:02:12;23.08;;;8.00;;
58689;SDS011;44470;53.206;-6.106;2023-05-19T14:04:38;21.30;;;8.40;;
58689;SDS011;44470;53.206;-6.106;2023-05-19T14:07:05;25.73;;;8.27;;
58689;SDS011;44470;53.206;-6.106;2023-05-19T14:09:31;22.77;;;8.82;;
58689;SDS011;44470;53.206;-6.106;2023-05-19T14:12:00;21.33;;;8.25;;
58689;SDS011;44470;53.206;-6.106;2023-05-19T14:14:34;19.42;;;7.93;;
58689;SDS011;44470;53.206;-6.106;2023-05-19T14:17:00;23.17;;;8.23;;
58689;SDS011;44470;53.206;-6.106;2023-05-19T14:19:26;18.42;;;7.65;;
58689;SDS011;44470;53.206;-6.106;2023-05-19T14:21:58;20.08;;;8.23;;
58689;SDS011;44470;53.206;-6.106;2023-05-19T14:24:27;17.00;;;6.75;;
58689;SDS011;44470;53.206;-6.106;2023-05-19T14:26:53;25.00;;;7.50;;
58689;SDS011;44470;53.206;-6.106;2023-05-19T14:29:19;18.73;;;6.82;;
58689;SDS011;44470;53.206;-6.106;2023-05-19T14:31:49;19.15;;;7.25;;
58689;SDS011;44470;53.206;-6.106;2023-05-19T14:34:15;16.65;;;7.10;;
58689;SDS011;44470;53.206;-6.106;2023-05-19T14:36:45;16.35;;;6.57;;
58689;SDS011;44470;53.206;-6.106;2023-05-19T14:39:16;17.10;;;7.28;;
58689;SDS011;44470;53.206;-6.106;2023-05-19T14:41:42;20.00;;;7.47;;
58689;SDS011;44470;53.206;-6.106;2023-05-19T14:44:08;14.77;;;6.43;;
58689;SDS011;44470;53.206;-6.106;2023-05-19T14:46:35;18.08;;;6.43;;
58689;SDS011;44470;53.206;-6.106;2023-05-19T14:49:01;16.08;;;6.30;;
58689;SDS011;44470;53.206;-6.106;2023-05-19T14:51:28;18.48;;;7.03;;
58689;SDS011;44470;53.206;-6.106;2023-05-19T14:53:56;17.98;;;6.57;;
58689;SDS011;44470;53.206;-6.106;2023-05-19T14:56:26;16.38;;;6.22;;
58689;SDS011;44470;53.206;-6.106;2023-05-19T14:58:55;14.13;;;5.93;;
58689;SDS011;44470;53.206;-6.106;2023-05-19T15:01:20;16.75;;;6.22;;
58689;SDS011;44470;53.206;-6.106;2023-05-19T15:03:46;15.45;;;5.50;;
58689;SDS011;44470;53.206;-6.106;2023-05-19T15:06:11;15.52;;;5.60;;
58689;SDS011;44470;53.206;-6.106;2023-05-19T15:08:37;18.35;;;5.97;;
58689;SDS011;44470;53.206;-6.106;2023-05-19T15:11:05;12.82;;;5.03;;
58689;SDS011;44470;53.206;-6.106;2023-05-19T15:13:34;15.52;;;4.80;;
58689;SDS011;44470;53.206;-6.106;2023-05-19T15:15:59;16.60;;;5.35;;
58689;SDS011;44470;53.206;-6.106;2023-05-19T15:18:25;20.33;;;5.00;;
58689;SDS011;44470;53.206;-6.106;2023-05-19T15:20:50;15.20;;;4.80;;
58689;SDS011;44470;53.206;-6.106;2023-05-19T15:23:16;12.82;;;4.75;;
58689;SDS011;44470;53.206;-6.106;2023-05-19T15:25:42;12.95;;;4.93;;
58689;SDS011;44470;53.206;-6.106;2023-05-19T15:28:09;12.40;;;4.85;;
58689;SDS011;44470;53.206;-6.106;2023-05-19T15:30:36;11.43;;;4.55;;
58689;SDS011;44470;53.206;-6.106;2023-05-19T15:33:04;10.25;;;5.22;;
58689;SDS011;44470;53.206;-6.106;2023-05-19T15:35:29;14.32;;;4.68;;
58689;SDS011;44470;53.206;-6.106;2023-05-19T15:37:58;14.75;;;5.10;;
58689;SDS011;44470;53.206;-6.106;2023-05-19T15:40:29;13.13;;;4.80;;
58689;SDS011;44470;53.206;-6.106;2023-05-19T15:42:54;20.35;;;5.00;;